createdAt,value
2019-03-19T00:00:55.660Z,100937.00
2019-03-19T00:03:26.795Z,100937.00
2019-03-19T00:05:56.481Z,100938.00
2019-03-19T00:08:26.121Z,100941.00
2019-03-19T00:10:56.108Z,100944.00
2019-03-19T00:13:25.819Z,100945.00
2019-03-19T00:15:55.495Z,100942.00
2019-03-19T00:18:25.164Z,100941.00
2019-03-19T00:20:54.848Z,100947.00
2019-03-19T00:23:24.509Z,100948.00
2019-03-19T00:25:54.166Z,100951.00
2019-03-19T00:28:26.342Z,100947.00
2019-03-19T00:31:15.347Z,100952.00
2019-03-19T00:33:45.022Z,100945.00
2019-03-19T00:36:14.701Z,100950.00
2019-03-19T00:38:44.367Z,100948.00
2019-03-19T00:41:21.379Z,100944.00
2019-03-19T00:43:51.098Z,100948.00
2019-03-19T00:46:20.774Z,100955.00
2019-03-19T00:48:50.449Z,100961.00
2019-03-19T00:51:23.475Z,100964.00
2019-03-19T00:53:53.135Z,100966.00
2019-03-19T00:56:22.820Z,100966.00
2019-03-19T00:58:52.484Z,100971.00
2019-03-19T01:01:22.134Z,100962.00
2019-03-19T01:03:51.877Z,100970.00
2019-03-19T01:06:21.550Z,100968.00
2019-03-19T01:08:51.208Z,100969.00
2019-03-19T01:11:20.919Z,100978.00
2019-03-19T01:13:50.626Z,100973.00
2019-03-19T01:16:20.294Z,100977.00
2019-03-19T01:18:50.055Z,100980.00
2019-03-19T01:21:19.709Z,100982.00
2019-03-19T01:23:49.368Z,100988.00
2019-03-19T01:26:22.047Z,100978.00
2019-03-19T01:28:51.711Z,100986.00
2019-03-19T01:31:21.380Z,100980.00
2019-03-19T01:33:50.996Z,100978.00
2019-03-19T01:36:20.665Z,100984.00
2019-03-19T01:38:50.402Z,100979.00
2019-03-19T01:41:20.151Z,100976.00
2019-03-19T01:43:49.811Z,100977.00
2019-03-19T01:46:19.484Z,100976.00
2019-03-19T01:48:49.952Z,100978.00
2019-03-19T01:51:19.630Z,100982.00
2019-03-19T01:53:49.401Z,100981.00
2019-03-19T01:56:19.105Z,100989.00
2019-03-19T01:58:48.779Z,100985.00
2019-03-19T02:01:18.436Z,100990.00
2019-03-19T02:03:48.108Z,100985.00
2019-03-19T02:06:17.780Z,100984.00
2019-03-19T02:08:47.454Z,100983.00
2019-03-19T02:11:17.471Z,100985.00
2019-03-19T02:13:47.161Z,100983.00
2019-03-19T02:16:16.847Z,100985.00
2019-03-19T02:18:46.519Z,100983.00
2019-03-19T02:21:16.190Z,100975.00
2019-03-19T02:23:45.923Z,100985.00
2019-03-19T02:26:16.971Z,100986.00
2019-03-19T02:28:46.924Z,100975.00
2019-03-19T02:31:16.579Z,100982.00
2019-03-19T02:33:46.273Z,100984.00
2019-03-19T02:36:15.929Z,100979.00
2019-03-19T02:38:45.588Z,100984.00
2019-03-19T02:41:18.204Z,100978.00
2019-03-19T02:43:49.099Z,100977.00
2019-03-19T02:46:18.792Z,100984.00
2019-03-19T02:48:48.403Z,100988.00
2019-03-19T02:51:18.087Z,100985.00
2019-03-19T02:53:47.901Z,100987.00
2019-03-19T02:56:31.877Z,100992.00
2019-03-19T02:58:48.972Z,100990.00
2019-03-19T03:01:20.283Z,100989.00
2019-03-19T03:03:50.060Z,100985.00
2019-03-19T03:06:19.733Z,100987.00
2019-03-19T03:08:49.659Z,100989.00
2019-03-19T03:11:19.468Z,100989.00
2019-03-19T03:13:49.681Z,100984.00
2019-03-19T03:16:19.341Z,100986.00
2019-03-19T03:18:49.023Z,100992.00
2019-03-19T03:21:18.681Z,100995.00
2019-03-19T03:23:48.363Z,100996.00
2019-03-19T03:26:21.053Z,100992.00
2019-03-19T03:28:50.715Z,101000.00
2019-03-19T03:31:20.332Z,100996.00
2019-03-19T03:33:50.022Z,100992.00
2019-03-19T03:36:19.682Z,101000.00
2019-03-19T03:38:49.607Z,100994.00
2019-03-19T03:41:19.287Z,100995.00
2019-03-19T03:43:48.963Z,101002.00
2019-03-19T03:46:18.639Z,101002.00
2019-03-19T03:48:48.314Z,101006.00
2019-03-19T03:51:18.012Z,101009.00
2019-03-19T03:53:47.634Z,101015.00
2019-03-19T03:56:17.380Z,101011.00
2019-03-19T03:58:59.875Z,101022.00
2019-03-19T04:01:18.728Z,101011.00
2019-03-19T04:03:48.497Z,101016.00
2019-03-19T04:06:19.507Z,101017.00
2019-03-19T04:08:49.158Z,101018.00
2019-03-19T04:11:18.859Z,101010.00
2019-03-19T04:13:48.519Z,101019.00
2019-03-19T04:16:18.182Z,101017.00
2019-03-19T04:18:47.876Z,101024.00
2019-03-19T04:21:17.545Z,101027.00
2019-03-19T04:23:47.207Z,101039.00
2019-03-19T04:26:16.884Z,101037.00
2019-03-19T04:28:48.182Z,101033.00
2019-03-19T04:31:18.181Z,101030.00
2019-03-19T04:33:47.872Z,101033.00
2019-03-19T04:36:17.458Z,101037.00
2019-03-19T04:38:47.134Z,101037.00
2019-03-19T04:41:16.811Z,101034.00
2019-03-19T04:43:46.603Z,101038.00
2019-03-19T04:46:16.261Z,101040.00
2019-03-19T04:48:45.951Z,101037.00
2019-03-19T04:51:15.616Z,101044.00
2019-03-19T04:53:45.289Z,101041.00
2019-03-19T04:56:14.977Z,101045.00
2019-03-19T04:58:44.631Z,101039.00
2019-03-19T05:01:14.377Z,101039.00
2019-03-19T05:03:44.059Z,101040.00
2019-03-19T05:06:13.726Z,101046.00
2019-03-19T05:08:43.458Z,101042.00
2019-03-19T05:11:13.140Z,101042.00
2019-03-19T05:13:43.398Z,101055.00
2019-03-19T05:16:13.056Z,101061.00
2019-03-19T05:18:42.747Z,101054.00
2019-03-19T05:21:12.429Z,101055.00
2019-03-19T05:23:42.084Z,101058.00
2019-03-19T05:26:11.767Z,101058.00
2019-03-19T05:28:41.436Z,101054.00
2019-03-19T05:31:11.197Z,101058.00
2019-03-19T05:33:40.895Z,101055.00
2019-03-19T05:36:10.550Z,101055.00
2019-03-19T05:38:43.934Z,101057.00
2019-03-19T05:41:13.616Z,101057.00
2019-03-19T05:43:44.746Z,101055.00
2019-03-19T05:46:14.414Z,101062.00
2019-03-19T05:48:44.110Z,101060.00
2019-03-19T05:51:13.696Z,101071.00
2019-03-19T05:53:43.353Z,101077.00
2019-03-19T05:56:13.053Z,101067.00
2019-03-19T05:58:42.705Z,101071.00
2019-03-19T06:01:12.451Z,101074.00
2019-03-19T06:03:42.134Z,101072.00
2019-03-19T06:06:11.861Z,101079.00
2019-03-19T06:08:41.530Z,101061.00
2019-03-19T06:11:11.210Z,101071.00
2019-03-19T06:13:40.872Z,101080.00
2019-03-19T06:16:10.555Z,101073.00
2019-03-19T06:18:40.232Z,101082.00
2019-03-19T06:21:09.890Z,101080.00
2019-03-19T06:23:39.573Z,101079.00
2019-03-19T06:26:09.248Z,101087.00
2019-03-19T06:28:38.920Z,101085.00
2019-03-19T06:31:08.671Z,101088.00
2019-03-19T06:33:38.941Z,101094.00
2019-03-19T06:36:09.484Z,101099.00
2019-03-19T06:38:39.157Z,101105.00
2019-03-19T06:41:08.839Z,101106.00
2019-03-19T06:43:38.501Z,101124.00
2019-03-19T06:46:08.353Z,101118.00
2019-03-19T06:48:38.120Z,101118.00
2019-03-19T06:51:07.889Z,101129.00
2019-03-19T06:53:37.569Z,101130.00
2019-03-19T06:56:07.261Z,101135.00
2019-03-19T06:58:37.008Z,101132.00
2019-03-19T07:01:06.676Z,101134.00
2019-03-19T07:03:36.411Z,101138.00
2019-03-19T07:06:06.094Z,101142.00
2019-03-19T07:08:35.770Z,101146.00
2019-03-19T07:11:05.465Z,101145.00
2019-03-19T07:13:35.131Z,101143.00
2019-03-19T07:16:04.791Z,101147.00
2019-03-19T07:18:34.475Z,101146.00
2019-03-19T07:21:04.152Z,101155.00
2019-03-19T07:23:33.871Z,101155.00
2019-03-19T07:26:03.564Z,101159.00
2019-03-19T07:28:34.654Z,101150.00
2019-03-19T07:31:04.425Z,101141.00
2019-03-19T07:33:37.094Z,101152.00
2019-03-19T07:36:06.760Z,101145.00
2019-03-19T07:38:36.601Z,101145.00
2019-03-19T07:41:06.307Z,101143.00
2019-03-19T07:43:35.964Z,101145.00
2019-03-19T07:46:05.854Z,101147.00
2019-03-19T07:48:38.258Z,101144.00
2019-03-19T07:51:08.047Z,101160.00
2019-03-19T07:53:37.721Z,101146.00
2019-03-19T07:56:07.393Z,101144.00
2019-03-19T07:58:45.276Z,101149.00
2019-03-19T08:01:08.446Z,101144.00
2019-03-19T08:03:38.146Z,101148.00
2019-03-19T08:06:10.829Z,101142.00
2019-03-19T08:08:41.959Z,101142.00
2019-03-19T08:11:13.179Z,101148.00
2019-03-19T08:13:43.067Z,101158.00
2019-03-19T08:16:12.732Z,101154.00
2019-03-19T08:18:42.419Z,101168.00
2019-03-19T08:21:13.555Z,101164.00
2019-03-19T08:23:43.253Z,101175.00
2019-03-19T08:26:14.939Z,101181.00
2019-03-19T08:28:54.907Z,101181.00
2019-03-19T08:31:16.014Z,101187.00
2019-03-19T08:33:45.705Z,101187.00
2019-03-19T08:36:15.364Z,101186.00
2019-03-19T08:38:45.038Z,101184.00
2019-03-19T08:41:14.718Z,101185.00
2019-03-19T08:43:44.386Z,101191.00
2019-03-19T08:46:14.055Z,101195.00
2019-03-19T08:48:43.738Z,101189.00
2019-03-19T08:51:13.464Z,101193.00
2019-03-19T08:53:43.127Z,101201.00
2019-03-19T08:56:12.855Z,101206.00
2019-03-19T08:58:42.530Z,101203.00
2019-03-19T09:01:14.901Z,100980.00
2019-03-19T09:03:44.610Z,101196.00
2019-03-19T09:06:14.278Z,101194.00
2019-03-19T09:08:43.940Z,101197.00
2019-03-19T09:11:13.647Z,101195.00
2019-03-19T09:13:43.311Z,101195.00
2019-03-19T09:16:13.940Z,101200.00
2019-03-19T09:18:43.662Z,101200.00
2019-03-19T09:21:13.333Z,101206.00
2019-03-19T09:23:43.161Z,101200.00
2019-03-19T09:26:13.092Z,101195.00
2019-03-19T09:28:42.821Z,101207.00
2019-03-19T09:31:16.134Z,101206.00
2019-03-19T09:33:45.824Z,101207.00
2019-03-19T09:36:15.533Z,101203.00
2019-03-19T09:38:45.201Z,101203.00
2019-03-19T09:41:14.905Z,101201.00
2019-03-19T09:43:44.553Z,101214.00
2019-03-19T09:46:14.386Z,101211.00
2019-03-19T09:48:44.060Z,101211.00
2019-03-19T09:51:13.714Z,101215.00
2019-03-19T09:53:43.369Z,101219.00
2019-03-19T09:56:13.084Z,101209.00
2019-03-19T09:58:42.739Z,101207.00
2019-03-19T10:01:12.386Z,101208.00
2019-03-19T10:03:42.088Z,101215.00
2019-03-19T10:06:14.343Z,101208.00
2019-03-19T10:08:43.155Z,101206.00
2019-03-19T10:11:12.829Z,101210.00
2019-03-19T10:13:42.533Z,101217.00
2019-03-19T10:16:12.184Z,101206.00
2019-03-19T10:18:41.868Z,101227.00
2019-03-19T10:21:11.534Z,101214.00
2019-03-19T10:23:41.203Z,101208.00
2019-03-19T10:26:10.896Z,101211.00
2019-03-19T10:28:40.561Z,101205.00
2019-03-19T10:31:10.226Z,101220.00
2019-03-19T10:33:39.929Z,101225.00
2019-03-19T10:36:09.824Z,101229.00
2019-03-19T10:38:39.487Z,101226.00
2019-03-19T10:41:09.166Z,101223.00
2019-03-19T10:43:38.842Z,101231.00
2019-03-19T10:46:08.516Z,101228.00
2019-03-19T10:48:38.238Z,101233.00
2019-03-19T10:51:07.905Z,101229.00
2019-03-19T10:53:37.491Z,101235.00
2019-03-19T10:56:07.204Z,101233.00
2019-03-19T10:58:36.869Z,101236.00
2019-03-19T11:01:06.598Z,101240.00
2019-03-19T11:03:36.267Z,101234.00
2019-03-19T11:06:05.927Z,101237.00
2019-03-19T11:08:35.582Z,101236.00
2019-03-19T11:11:05.286Z,101235.00
2019-03-19T11:13:34.951Z,101235.00
2019-03-19T11:16:04.779Z,101230.00
2019-03-19T11:18:34.484Z,101233.00
2019-03-19T11:21:04.132Z,101226.00
2019-03-19T11:23:33.858Z,101232.00
2019-03-19T11:26:03.537Z,101236.00
2019-03-19T11:28:33.121Z,101249.00
2019-03-19T11:31:02.782Z,101240.00
2019-03-19T11:33:32.449Z,101240.00
2019-03-19T11:36:02.121Z,101243.00
2019-03-19T11:38:31.873Z,101233.00
2019-03-19T11:41:01.562Z,101242.00
2019-03-19T11:43:31.236Z,101247.00
2019-03-19T11:46:00.929Z,101250.00
2019-03-19T11:48:30.635Z,101250.00
2019-03-19T11:51:00.525Z,101250.00
2019-03-19T11:53:30.176Z,101254.00
2019-03-19T11:55:59.956Z,101248.00
2019-03-19T11:58:29.632Z,101255.00
2019-03-19T12:01:04.129Z,101251.00
2019-03-19T12:03:33.840Z,101252.00
2019-03-19T12:06:03.516Z,101250.00
2019-03-19T12:08:33.194Z,101253.00
2019-03-19T12:11:02.881Z,101249.00
2019-03-19T12:13:32.547Z,101249.00
2019-03-19T12:16:02.221Z,101248.00
2019-03-19T12:18:32.021Z,101258.00
2019-03-19T12:21:01.677Z,101260.00
2019-03-19T12:23:31.338Z,101253.00
2019-03-19T12:26:01.037Z,101250.00
2019-03-19T12:28:39.205Z,101249.00
2019-03-19T12:31:02.875Z,101244.00
2019-03-19T12:33:40.534Z,101244.00
2019-03-19T12:36:04.251Z,101245.00
2019-03-19T12:38:33.933Z,101236.00
2019-03-19T12:41:03.624Z,101241.00
2019-03-19T12:43:33.301Z,101242.00
2019-03-19T12:46:02.952Z,101233.00
2019-03-19T12:48:32.640Z,101242.00
2019-03-19T12:51:02.296Z,101248.00
2019-03-19T12:53:31.958Z,101258.00
2019-03-19T12:56:01.646Z,101252.00
2019-03-19T12:58:31.315Z,101247.00
2019-03-19T13:01:01.000Z,101240.00
2019-03-19T13:03:30.670Z,101234.00
2019-03-19T13:06:00.332Z,101237.00
2019-03-19T13:08:30.004Z,101231.00
2019-03-19T13:11:02.434Z,101225.00
2019-03-19T13:13:32.107Z,101234.00
2019-03-19T13:16:01.776Z,101238.00
2019-03-19T13:18:31.448Z,101231.00
2019-03-19T13:21:01.119Z,101243.00
2019-03-19T13:23:30.773Z,101243.00
2019-03-19T13:26:00.464Z,101233.00
2019-03-19T13:28:30.133Z,101227.00
2019-03-19T13:31:00.894Z,101237.00
2019-03-19T13:33:30.583Z,101234.00
2019-03-19T13:36:00.253Z,101236.00
2019-03-19T13:38:29.925Z,101226.00
2019-03-19T13:40:59.699Z,101230.00
2019-03-19T13:43:29.352Z,101229.00
2019-03-19T13:45:59.032Z,101213.00
2019-03-19T13:48:28.706Z,101226.00
2019-03-19T13:50:58.372Z,101218.00
2019-03-19T13:53:28.072Z,101218.00
2019-03-19T13:55:57.782Z,101216.00
2019-03-19T13:58:27.534Z,101216.00
2019-03-19T14:00:57.468Z,101213.00
2019-03-19T14:03:27.150Z,101210.00
2019-03-19T14:05:56.799Z,101212.00
2019-03-19T14:08:26.530Z,101215.00
2019-03-19T14:10:56.232Z,101210.00
2019-03-19T14:13:26.048Z,101204.00
2019-03-19T14:15:55.715Z,101201.00
2019-03-19T14:18:25.392Z,101206.00
2019-03-19T14:20:55.133Z,101201.00
2019-03-19T14:23:24.795Z,101210.00
2019-03-19T14:25:54.481Z,101199.00
2019-03-19T14:28:24.211Z,101200.00
2019-03-19T14:30:53.868Z,101209.00
2019-03-19T14:33:23.542Z,101210.00
2019-03-19T14:35:53.202Z,101212.00
2019-03-19T14:38:22.791Z,101205.00
2019-03-19T14:40:52.465Z,101209.00
2019-03-19T14:43:22.146Z,101204.00
2019-03-19T14:45:51.894Z,101209.00
2019-03-19T14:48:21.552Z,101213.00
2019-03-19T14:50:51.404Z,101199.00
2019-03-19T14:53:21.083Z,101194.00
2019-03-19T14:55:50.754Z,101184.00
2019-03-19T14:58:20.410Z,101184.00
2019-03-19T15:00:50.096Z,101183.00
2019-03-19T15:03:19.758Z,101182.00
2019-03-19T15:05:49.443Z,101187.00
2019-03-19T15:08:19.387Z,101186.00
2019-03-19T15:10:49.073Z,101182.00
2019-03-19T15:13:18.819Z,101181.00
2019-03-19T15:15:48.640Z,101171.00
2019-03-19T15:18:18.384Z,101175.00
2019-03-19T15:20:48.062Z,101172.00
2019-03-19T15:23:17.756Z,101169.00
2019-03-19T15:25:47.406Z,101175.00
2019-03-19T15:28:17.076Z,101179.00
2019-03-19T15:30:46.773Z,101181.00
2019-03-19T15:33:16.378Z,101168.00
2019-03-19T15:35:46.036Z,101178.00
2019-03-19T15:38:15.728Z,101179.00
2019-03-19T15:40:45.401Z,101180.00
2019-03-19T15:43:15.087Z,101178.00
2019-03-19T15:45:44.876Z,101182.00
2019-03-19T15:48:14.551Z,101167.00
2019-03-19T15:50:44.234Z,101162.00
2019-03-19T15:53:13.918Z,101149.00
2019-03-19T15:55:43.581Z,101149.00
2019-03-19T15:58:13.316Z,101150.00
2019-03-19T16:00:43.146Z,101135.00
2019-03-19T16:03:12.822Z,101163.00
2019-03-19T16:05:42.497Z,101146.00
2019-03-19T16:08:12.187Z,101164.00
2019-03-19T16:10:41.837Z,101147.00
2019-03-19T16:13:11.499Z,101142.00
2019-03-19T16:15:41.256Z,101158.00
2019-03-19T16:18:10.929Z,101173.00
2019-03-19T16:20:40.732Z,101162.00
2019-03-19T16:23:10.491Z,101200.00
2019-03-19T16:25:40.145Z,101204.00
2019-03-19T16:28:09.822Z,101208.00
2019-03-19T16:30:41.055Z,101207.00
2019-03-19T16:33:10.730Z,101212.00
2019-03-19T16:35:40.398Z,101206.00
2019-03-19T16:38:10.083Z,101208.00
2019-03-19T16:40:39.759Z,101199.00
2019-03-19T16:43:09.434Z,101198.00
2019-03-19T16:45:39.203Z,101213.00
2019-03-19T16:48:08.875Z,101226.00
2019-03-19T16:50:38.549Z,101218.00
2019-03-19T16:53:09.762Z,101224.00
2019-03-19T16:55:39.440Z,101217.00
2019-03-19T16:58:11.995Z,101229.00
2019-03-19T17:00:41.680Z,101221.00
2019-03-19T17:03:11.339Z,101230.00
2019-03-19T17:05:42.427Z,101228.00
2019-03-19T17:08:12.108Z,101229.00
2019-03-19T17:10:41.863Z,101239.00
2019-03-19T17:13:11.549Z,101238.00
2019-03-19T17:15:41.272Z,101237.00
2019-03-19T17:18:10.940Z,101247.00
2019-03-19T17:20:41.950Z,101253.00
2019-03-19T17:23:11.623Z,101270.00
2019-03-19T17:25:41.293Z,101266.00
2019-03-19T17:28:10.971Z,101269.00
2019-03-19T17:31:01.397Z,101266.00
2019-03-19T17:33:31.061Z,101274.00
2019-03-19T17:36:00.812Z,101278.00
2019-03-19T17:38:30.494Z,101279.00
2019-03-19T17:41:00.238Z,101285.00
2019-03-19T17:43:29.930Z,101276.00
2019-03-19T17:45:59.616Z,101276.00
2019-03-19T17:48:29.302Z,101290.00
2019-03-19T17:50:59.000Z,101294.00
2019-03-19T17:53:28.774Z,101299.00
2019-03-19T17:55:58.417Z,101303.00
2019-03-19T17:58:28.107Z,101305.00
2019-03-19T18:00:57.878Z,101306.00
2019-03-19T18:03:27.644Z,101317.00
2019-03-19T18:05:57.307Z,101319.00
2019-03-19T18:08:27.068Z,101328.00
2019-03-19T18:10:56.746Z,101325.00
2019-03-19T18:13:26.438Z,101328.00
2019-03-19T18:15:56.193Z,101317.00
2019-03-19T18:18:25.981Z,101314.00
2019-03-19T18:20:55.617Z,101327.00
2019-03-19T18:23:25.316Z,101341.00
2019-03-19T18:25:54.996Z,101343.00
2019-03-19T18:28:24.654Z,101337.00
2019-03-19T18:30:54.358Z,101330.00
2019-03-19T18:33:24.009Z,101336.00
2019-03-19T18:35:56.450Z,101344.00
2019-03-19T18:38:26.351Z,101348.00
2019-03-19T18:40:56.029Z,101337.00
2019-03-19T18:43:25.685Z,101347.00
2019-03-19T18:45:57.191Z,101349.00
2019-03-19T18:48:27.172Z,101345.00
2019-03-19T18:50:56.837Z,101336.00
2019-03-19T18:53:26.628Z,101338.00
2019-03-19T18:55:56.553Z,101348.00
2019-03-19T18:58:26.221Z,101338.00
2019-03-19T19:00:55.923Z,101345.00
2019-03-19T19:03:25.663Z,101347.00
2019-03-19T19:05:55.309Z,101352.00
2019-03-19T19:08:24.995Z,101355.00
2019-03-19T19:10:54.687Z,101363.00
2019-03-19T19:13:24.375Z,101373.00
2019-03-19T19:15:54.074Z,101386.00
2019-03-19T19:18:23.767Z,101380.00
2019-03-19T19:20:53.414Z,101381.00
2019-03-19T19:23:23.114Z,101385.00
2019-03-19T19:25:52.805Z,101377.00
2019-03-19T19:28:22.476Z,101390.00
2019-03-19T19:30:52.157Z,101389.00
2019-03-19T19:33:21.850Z,101387.00
2019-03-19T19:35:51.573Z,101386.00
2019-03-19T19:38:21.262Z,101391.00
2019-03-19T19:40:50.987Z,101390.00
2019-03-19T19:43:20.670Z,101387.00
2019-03-19T19:45:50.352Z,101385.00
2019-03-19T19:48:20.017Z,101393.00
2019-03-19T19:50:49.687Z,101397.00
2019-03-19T19:53:19.382Z,101394.00
2019-03-19T19:55:49.065Z,101401.00
2019-03-19T19:58:18.757Z,101397.00
2019-03-19T20:00:48.418Z,101400.00
2019-03-19T20:03:18.132Z,101405.00
2019-03-19T20:05:47.848Z,101417.00
2019-03-19T20:08:17.563Z,101428.00
2019-03-19T20:10:48.693Z,101419.00
2019-03-19T20:13:18.374Z,101426.00
2019-03-19T20:15:48.139Z,101422.00
2019-03-19T20:18:17.897Z,101426.00
2019-03-19T20:20:47.577Z,101411.00
2019-03-19T20:23:17.270Z,101423.00
2019-03-19T20:25:46.947Z,101415.00
2019-03-19T20:28:35.888Z,101405.00
2019-03-19T20:31:05.621Z,101409.00
2019-03-19T20:33:35.297Z,101414.00
2019-03-19T20:36:04.973Z,101418.00
2019-03-19T20:38:34.693Z,101415.00
2019-03-19T20:41:04.410Z,101416.00
2019-03-19T20:43:34.092Z,101416.00
2019-03-19T20:46:23.639Z,101414.00
2019-03-19T20:48:53.411Z,101414.00
2019-03-19T20:51:23.072Z,101415.00
2019-03-19T20:53:52.738Z,101423.00
2019-03-19T20:56:22.422Z,101423.00
2019-03-19T20:58:52.147Z,101415.00
2019-03-19T21:01:21.927Z,101423.00
2019-03-19T21:03:51.628Z,101430.00
2019-03-19T21:06:21.380Z,101435.00
2019-03-19T21:09:10.341Z,101439.00
2019-03-19T21:11:40.027Z,101444.00
2019-03-19T21:14:09.769Z,101446.00
2019-03-19T21:16:39.452Z,101435.00
2019-03-19T21:19:09.199Z,101445.00
2019-03-19T21:21:38.884Z,101441.00
2019-03-19T21:24:08.717Z,101443.00
2019-03-19T21:26:38.464Z,101455.00
2019-03-19T21:29:08.129Z,101453.00
2019-03-19T21:31:37.823Z,101442.00
2019-03-19T21:34:09.051Z,101448.00
2019-03-19T21:36:38.767Z,101450.00
2019-03-19T21:39:08.958Z,101451.00
2019-03-19T21:41:38.616Z,101455.00
2019-03-19T21:44:08.277Z,101455.00
2019-03-19T21:46:57.212Z,101448.00
2019-03-19T21:49:28.545Z,101461.00
2019-03-19T21:51:58.254Z,101448.00
2019-03-19T21:54:27.964Z,101450.00
2019-03-19T21:56:57.664Z,101460.00
2019-03-19T21:59:27.346Z,101468.00
2019-03-19T22:01:57.035Z,101470.00
2019-03-19T22:04:26.690Z,101469.00
2019-03-19T22:06:56.365Z,101468.00
2019-03-19T22:09:26.463Z,101466.00
2019-03-19T22:11:56.130Z,101466.00
2019-03-19T22:14:25.951Z,101463.00
2019-03-19T22:16:55.642Z,101469.00
2019-03-19T22:19:25.348Z,101484.00
2019-03-19T22:21:56.448Z,101482.00
2019-03-19T22:24:26.240Z,101477.00
2019-03-19T22:26:55.899Z,101466.00
2019-03-19T22:29:25.555Z,101478.00
2019-03-19T22:31:55.244Z,101483.00
2019-03-19T22:34:24.916Z,101482.00
2019-03-19T22:36:54.579Z,101483.00
2019-03-19T22:39:24.349Z,101483.00
2019-03-19T22:41:54.013Z,101486.00
2019-03-19T22:44:23.797Z,101491.00
2019-03-19T22:46:53.489Z,101500.00
2019-03-19T22:49:23.147Z,101502.00
2019-03-19T22:51:52.822Z,101508.00
2019-03-19T22:54:22.524Z,101510.00
2019-03-19T22:56:52.185Z,101464.00
2019-03-19T22:59:21.858Z,101494.00
2019-03-19T23:01:51.561Z,101502.00
2019-03-19T23:04:27.119Z,101499.00
2019-03-19T23:06:54.099Z,101498.00
2019-03-19T23:09:23.845Z,101497.00
2019-03-19T23:11:53.907Z,101497.00
2019-03-19T23:14:23.574Z,101495.00
2019-03-19T23:16:53.331Z,101499.00
2019-03-19T23:19:22.988Z,101499.00
2019-03-19T23:21:52.744Z,101497.00
2019-03-19T23:24:22.438Z,101503.00
2019-03-19T23:26:52.119Z,101504.00
2019-03-19T23:29:21.771Z,101501.00
2019-03-19T23:31:52.073Z,101507.00
2019-03-19T23:34:21.701Z,101504.00
2019-03-19T23:36:51.411Z,101498.00
2019-03-19T23:39:21.108Z,101494.00
2019-03-19T23:41:50.805Z,101497.00
2019-03-19T23:44:20.468Z,101498.00
2019-03-19T23:46:50.169Z,101501.00
2019-03-19T23:49:19.831Z,101502.00
2019-03-19T23:51:50.950Z,101496.00
2019-03-19T23:54:20.649Z,101497.00
2019-03-19T23:56:50.308Z,101505.00
2019-03-19T23:59:20.113Z,101509.00
